Time;durP1;ratioP1;P1;durP2;ratioP2;P2;SDS_P1;SDS_P2;PMS_P1;PMS_P2;Temp;Humidity;BMP_temperature;BMP_pressure;BME280_temperature;BME280_humidity;BME280_pressure;Samples;Min_cycle;Max_cycle;Signal;HPM_P1;HPM_P2
2022/02/02 00:04:30;;;;;;;12.13;3.17;;;8.70;99.90;;;;;;5036404;28;20045;-72
2022/02/02 00:09:34;;;;;;;8.63;1.80;;;8.70;99.90;;;;;;5035485;28;20075;-69
2022/02/02 00:12:18;;;;;;;8.90;2.53;;;10.50;99.90;;;;;;5036631;28;20083;-75
2022/02/02 00:17:32;;;;;;;16.67;2.47;;;9.50;99.90;;;;;;5034979;28;20132;-73
2022/02/02 00:20:14;;;;;;;11.07;2.63;;;9.30;99.90;;;;;;5035795;28;20034;-73
2022/02/02 00:22:42;;;;;;;21.35;3.85;;;9.10;99.90;;;;;;5035749;28;20050;-75
2022/02/02 00:25:17;;;;;;;11.48;3.10;;;9.00;99.90;;;;;;5037681;28;20039;-73
2022/02/02 00:27:46;;;;;;;16.60;2.60;;;8.90;99.90;;;;;;5036090;28;20031;-73
2022/02/02 00:30:16;;;;;;;20.63;3.30;;;8.90;99.90;;;;;;5036266;28;20409;-74
2022/02/02 00:35:13;;;;;;;11.07;2.60;;;8.80;99.90;;;;;;5025700;28;20034;-72
2022/02/02 00:37:38;;;;;;;21.60;6.00;;;8.80;99.90;;;;;;5027415;28;20036;-73
2022/02/02 00:40:06;;;;;;;14.32;2.95;;;8.80;99.90;;;;;;5038907;28;20021;-73
2022/02/02 00:42:32;;;;;;;18.02;3.20;;;8.80;99.90;;;;;;5039758;28;20022;-74
2022/02/02 00:44:58;;;;;;;16.08;4.03;;;8.70;99.90;;;;;;5039835;28;20026;-72
2022/02/02 00:47:25;;;;;;;21.25;4.13;;;8.70;99.90;;;;;;5036053;28;20028;-74
2022/02/02 00:49:52;;;;;;;16.48;3.83;;;8.70;99.90;;;;;;5034849;28;20438;-72
2022/02/02 00:52:20;;;;;;;17.88;4.25;;;8.70;99.90;;;;;;5030749;28;20033;-71
2022/02/02 00:54:49;;;;;;;11.25;3.25;;;8.80;99.90;;;;;;5023380;28;20064;-71
2022/02/02 00:57:14;;;;;;;15.75;2.90;;;8.70;99.90;;;;;;5026653;28;20064;-71
2022/02/02 00:59:40;;;;;;;18.38;3.72;;;8.70;99.90;;;;;;5025312;28;20025;-71
2022/02/02 01:02:07;;;;;;;29.90;5.47;;;8.80;99.90;;;;;;5022655;28;20044;-70
2022/02/02 01:04:33;;;;;;;16.58;3.70;;;8.70;99.90;;;;;;5022625;28;20028;-71
2022/02/02 01:10:35;;;;;;;22.95;4.43;;;8.60;99.90;;;;;;5024371;28;20028;-70
2022/02/02 01:28:24;;;;;;;17.27;3.53;;;8.60;99.90;;;;;;5026091;28;20083;-71
2022/02/02 01:30:50;;;;;;;22.38;4.28;;;8.60;99.90;;;;;;5023505;28;20021;-70
2022/02/02 01:33:16;;;;;;;21.90;3.97;;;8.60;99.90;;;;;;5024155;28;20026;-70
2022/02/02 01:35:43;;;;;;;18.88;4.55;;;8.60;99.90;;;;;;5014475;28;20080;-71
2022/02/02 01:38:09;;;;;;;20.48;3.83;;;8.70;99.90;;;;;;5014759;28;20056;-71
2022/02/02 01:40:40;;;;;;;14.23;4.05;;;8.70;99.90;;;;;;5013899;28;20025;-71
2022/02/02 01:43:10;;;;;;;20.17;3.73;;;8.60;99.90;;;;;;5012880;28;20038;-73
2022/02/02 01:45:47;;;;;;;23.85;4.70;;;8.70;99.90;;;;;;5013523;28;20735;-71
2022/02/02 01:55:57;;;;;;;13.88;4.53;;;8.70;99.90;;;;;;5025029;28;20525;-71
2022/02/02 02:00:52;;;;;;;19.38;4.70;;;8.70;99.90;;;;;;5033823;28;20029;-70
2022/02/02 02:03:18;;;;;;;18.85;3.72;;;8.70;99.90;;;;;;5027808;28;20044;-71
2022/02/02 02:05:44;;;;;;;21.88;4.43;;;8.80;99.90;;;;;;5026818;28;20026;-72
2022/02/02 02:08:10;;;;;;;16.98;4.25;;;8.80;99.90;;;;;;5033987;28;20030;-72
2022/02/02 02:10:35;;;;;;;31.00;4.82;;;8.70;99.90;;;;;;5034076;28;20048;-71
2022/02/02 02:15:33;;;;;;;20.98;5.10;;;8.70;99.90;;;;;;5029301;28;20060;-72
2022/02/02 02:18:00;;;;;;;21.35;6.10;;;8.70;99.90;;;;;;5032493;28;20033;-73
2022/02/02 02:20:26;;;;;;;19.60;6.38;;;8.70;99.90;;;;;;5034763;28;20052;-70
2022/02/02 02:22:52;;;;;;;26.60;5.57;;;8.70;99.90;;;;;;5032798;28;20115;-74
2022/02/02 02:25:25;;;;;;;19.70;4.53;;;8.60;99.90;;;;;;5032657;28;20029;-71
2022/02/02 02:27:52;;;;;;;12.30;3.60;;;8.60;99.90;;;;;;5023912;28;20437;-73
2022/02/02 02:30:41;;;;;;;19.60;5.15;;;8.70;99.90;;;;;;5029369;28;20067;-71
2022/02/02 02:57:20;;;;;;;18.90;4.28;;;8.60;99.90;;;;;;5021179;28;20029;-70
2022/02/02 03:00:03;;;;;;;15.48;2.67;;;8.60;99.90;;;;;;5023202;28;20032;-72
2022/02/02 03:03:01;;;;;;;15.38;3.20;;;8.50;99.90;;;;;;5029944;28;20022;-70
2022/02/02 03:14:17;;;;;;;23.23;3.92;;;8.50;99.90;;;;;;5034536;28;20113;-71
2022/02/02 03:49:55;;;;;;;22.23;3.67;;;8.40;99.90;;;;;;5038882;28;20478;-70
2022/02/02 03:55:03;;;;;;;20.15;4.03;;;8.40;99.90;;;;;;5037277;28;20091;-72
2022/02/02 03:57:58;;;;;;;21.35;4.82;;;8.40;99.90;;;;;;5037712;28;20372;-71
2022/02/02 04:08:24;;;;;;;23.27;4.05;;;8.50;99.90;;;;;;5036367;28;20032;-73
2022/02/02 04:10:42;;;;;;;12.88;3.15;;;8.50;99.90;;;;;;5035798;28;20052;-71
2022/02/02 04:13:22;;;;;;;19.63;5.53;;;8.50;99.90;;;;;;5037467;28;20108;-71
2022/02/02 04:54:17;;;;;;;21.48;5.22;;;8.40;99.90;;;;;;5034704;28;20044;-71
2022/02/02 05:10:24;;;;;;;24.63;6.03;;;8.50;99.90;;;;;;5034735;28;20021;-71
2022/02/02 05:24:25;;;;;;;31.98;5.57;;;8.60;99.90;;;;;;5035094;28;20051;-71
2022/02/02 05:51:20;;;;;;;27.63;5.95;;;8.50;99.90;;;;;;5012196;28;20438;-72
2022/02/02 05:53:44;;;;;;;22.15;5.70;;;8.40;99.90;;;;;;5029310;28;20052;-71
2022/02/02 05:56:09;;;;;;;23.55;5.35;;;8.40;99.90;;;;;;5035489;28;20127;-69
2022/02/02 05:58:38;;;;;;;27.10;6.75;;;8.50;99.90;;;;;;5037833;28;20029;-70
2022/02/02 06:01:06;;;;;;;26.25;6.45;;;8.60;99.90;;;;;;5067970;28;20045;-69
2022/02/02 06:03:54;;;;;;;27.08;5.47;;;8.50;99.90;;;;;;5036179;28;20048;-70
2022/02/02 06:06:24;;;;;;;18.15;4.97;;;8.50;99.90;;;;;;5034427;28;20025;-69
2022/02/02 06:08:51;;;;;;;27.23;5.60;;;8.40;99.90;;;;;;5034724;28;20379;-72
2022/02/02 06:11:24;;;;;;;20.92;4.38;;;8.40;99.90;;;;;;5034002;28;20022;-71
2022/02/02 06:13:52;;;;;;;17.58;4.25;;;8.40;99.90;;;;;;5031749;28;20033;-70
2022/02/02 06:16:19;;;;;;;24.15;5.05;;;8.40;99.90;;;;;;5032785;28;20048;-70
2022/02/02 06:18:46;;;;;;;24.85;4.32;;;8.40;99.90;;;;;;5033838;28;20384;-70
2022/02/02 06:21:14;;;;;;;17.60;3.80;;;8.40;99.90;;;;;;5034412;28;20088;-69
2022/02/02 06:23:53;;;;;;;12.90;3.63;;;8.40;99.90;;;;;;5033798;28;20064;-70
2022/02/02 06:26:23;;;;;;;23.75;5.22;;;8.40;99.90;;;;;;5033858;28;20033;-70
2022/02/02 06:28:51;;;;;;;12.85;3.08;;;8.40;99.90;;;;;;5033242;28;20025;-71
2022/02/02 06:31:21;;;;;;;10.30;2.83;;;8.40;99.90;;;;;;5035076;28;20045;-71
2022/02/02 06:33:52;;;;;;;19.70;3.53;;;8.30;99.90;;;;;;5032460;28;20087;-70
2022/02/02 06:36:18;;;;;;;12.90;3.00;;;8.20;99.90;;;;;;5033931;28;20053;-71
2022/02/02 06:38:45;;;;;;;10.90;3.00;;;8.20;99.90;;;;;;5031633;28;20064;-71
2022/02/02 06:41:11;;;;;;;18.27;4.10;;;8.20;99.90;;;;;;5065627;28;20071;-70
2022/02/02 06:43:36;;;;;;;14.25;2.97;;;8.20;99.90;;;;;;5033853;28;20037;-71
2022/02/02 06:46:03;;;;;;;11.95;2.83;;;8.30;99.90;;;;;;5032707;28;20513;-72
2022/02/02 06:48:32;;;;;;;23.45;3.65;;;8.30;99.90;;;;;;5033360;28;20026;-72
2022/02/02 06:51:13;;;;;;;15.93;3.95;;;8.30;99.90;;;;;;5032115;28;20360;-71
2022/02/02 06:54:00;;;;;;;18.73;3.55;;;8.30;99.90;;;;;;5033569;28;20061;-71
2022/02/02 06:59:23;;;;;;;24.05;3.95;;;8.30;99.90;;;;;;5033051;28;20468;-71
2022/02/02 07:07:58;;;;;;;19.45;5.57;;;8.40;99.90;;;;;;5059722;28;20057;-72
2022/02/02 07:16:23;;;;;;;16.70;4.65;;;8.40;99.90;;;;;;5037841;28;20451;-71
2022/02/02 07:19:13;;;;;;;17.48;4.57;;;8.40;99.90;;;;;;5037287;28;20018;-76
2022/02/02 07:24:58;;;;;;;20.55;5.13;;;8.50;99.90;;;;;;5038659;28;20060;-71
2022/02/02 07:32:43;;;;;;;16.42;3.78;;;8.50;99.90;;;;;;5038799;28;20033;-72
2022/02/02 07:35:18;;;;;;;18.67;4.78;;;8.40;99.90;;;;;;5038174;28;20029;-71
2022/02/02 07:38:08;;;;;;;17.75;3.88;;;8.40;99.90;;;;;;5038158;28;20036;-73
2022/02/02 07:40:34;;;;;;;20.15;4.88;;;8.50;99.90;;;;;;5037956;28;20030;-75
2022/02/02 07:43:04;;;;;;;23.08;4.30;;;8.40;99.90;;;;;;5038369;28;20033;-72
2022/02/02 07:45:35;;;;;;;17.38;3.63;;;8.40;99.90;;;;;;5039029;28;20064;-71
2022/02/02 07:48:04;;;;;;;13.55;3.58;;;8.50;99.90;;;;;;5038026;28;20398;-71
2022/02/02 07:50:34;;;;;;;24.17;4.60;;;8.50;99.90;;;;;;5036819;28;20025;-71
2022/02/02 07:53:06;;;;;;;22.13;4.55;;;8.40;99.90;;;;;;5035725;28;20043;-71
2022/02/02 07:55:33;;;;;;;19.67;4.40;;;8.40;99.90;;;;;;5035961;28;20075;-73
2022/02/02 07:58:01;;;;;;;23.20;5.15;;;8.40;99.90;;;;;;5036456;28;20033;-71
2022/02/02 08:00:27;;;;;;;14.52;3.28;;;8.40;99.90;;;;;;5036342;28;20059;-71
2022/02/02 08:05:19;;;;;;;21.55;3.88;;;8.30;99.90;;;;;;5035993;28;20021;-70
2022/02/02 08:07:56;;;;;;;19.13;3.70;;;8.30;99.90;;;;;;5034683;28;20079;-71
2022/02/02 08:10:23;;;;;;;17.08;3.63;;;8.40;99.90;;;;;;5034849;28;20108;-71
2022/02/02 08:12:54;;;;;;;18.50;4.63;;;8.40;99.90;;;;;;5035370;28;20075;-72
2022/02/02 08:15:22;;;;;;;18.07;4.30;;;8.50;99.90;;;;;;5034162;28;20423;-70
2022/02/02 08:17:50;;;;;;;24.13;4.57;;;8.50;99.90;;;;;;5035487;28;20467;-72
2022/02/02 08:20:17;;;;;;;24.88;5.78;;;8.50;99.90;;;;;;5035801;28;20095;-71
2022/02/02 08:22:44;;;;;;;15.95;4.20;;;8.50;99.90;;;;;;5035921;28;20103;-72
2022/02/02 08:25:12;;;;;;;25.73;4.20;;;8.60;99.90;;;;;;5035258;28;20109;-73
2022/02/02 08:27:40;;;;;;;26.85;4.40;;;8.60;99.90;;;;;;5036580;28;20398;-70
2022/02/02 08:30:11;;;;;;;21.75;5.28;;;8.60;99.90;;;;;;5034615;28;20087;-70
2022/02/02 08:32:46;;;;;;;19.50;3.72;;;8.50;99.90;;;;;;5035529;28;20025;-71
2022/02/02 08:35:13;;;;;;;15.10;3.47;;;8.50;99.90;;;;;;5038352;28;20032;-72
2022/02/02 08:37:42;;;;;;;22.98;4.45;;;8.30;99.90;;;;;;5040224;28;20385;-73
2022/02/02 08:40:23;;;;;;;10.75;2.83;;;8.40;99.90;;;;;;5039482;28;20078;-71
2022/02/02 08:42:50;;;;;;;12.67;3.23;;;8.30;99.90;;;;;;5037737;28;20036;-71
2022/02/02 08:45:20;;;;;;;19.05;2.92;;;8.20;99.90;;;;;;5034430;28;20033;-70
2022/02/02 08:47:53;;;;;;;16.33;2.22;;;8.00;99.90;;;;;;5038148;28;20033;-70
2022/02/02 08:50:27;;;;;;;11.15;3.05;;;8.10;99.90;;;;;;5037843;28;20017;-71
2022/02/02 08:52:56;;;;;;;8.98;1.85;;;8.00;99.90;;;;;;5036262;28;20033;-71
2022/02/02 08:55:46;;;;;;;6.65;1.70;;;7.90;99.90;;;;;;5031799;28;20053;-74
2022/02/02 08:58:21;;;;;;;10.23;1.55;;;7.90;99.90;;;;;;5026738;28;20021;-72
2022/02/02 09:00:52;;;;;;;8.98;2.85;;;8.00;99.90;;;;;;5027011;28;20447;-70
2022/02/02 09:06:02;;;;;;;8.60;2.30;;;8.20;99.90;;;;;;5030765;28;20048;-70
2022/02/02 09:08:30;;;;;;;14.48;2.65;;;8.20;99.90;;;;;;5024533;28;20022;-72
2022/02/02 09:25:04;;;;;;;7.07;2.25;;;11.30;99.90;;;;;;5028533;28;20102;-60
2022/02/02 09:35:27;;;;;;;4.30;1.55;;;13.20;99.90;;;;;;5031342;28;20491;-57
2022/02/02 09:37:53;;;;;;;9.60;1.88;;;13.80;99.90;;;;;;5026231;28;20120;-57
2022/02/02 09:42:54;;;;;;;12.75;2.50;;;13.00;99.90;;;;;;5025609;28;20029;-58
2022/02/02 09:45:20;;;;;;;10.43;2.40;;;13.10;99.90;;;;;;5033223;28;20029;-65
2022/02/02 09:47:56;;;;;;;12.82;2.97;;;12.90;99.90;;;;;;5035169;28;20064;-75
2022/02/02 09:50:29;;;;;;;13.75;3.13;;;12.60;99.90;;;;;;5034117;28;20383;-72
2022/02/02 09:52:59;;;;;;;8.25;3.15;;;11.50;99.90;;;;;;5033162;28;20041;-70
2022/02/02 09:56:44;;;;;;;14.43;3.47;;;10.70;99.90;;;;;;5035834;28;20463;-72
2022/02/02 10:01:02;;;;;;;13.65;3.30;;;9.80;99.90;;;;;;5034393;28;20030;-72
2022/02/02 10:03:53;;;;;;;11.65;2.95;;;9.50;99.90;;;;;;5034747;28;20096;-76
2022/02/02 10:09:24;;;;;;;7.63;2.22;;;9.00;99.90;;;;;;5032546;28;20072;-71
2022/02/02 10:14:35;;;;;;;12.45;2.17;;;8.70;99.90;;;;;;5028858;28;20116;-72
2022/02/02 10:17:06;;;;;;;6.90;1.77;;;9.30;99.90;;;;;;5028431;28;20037;-73
2022/02/02 10:19:36;;;;;;;9.27;1.65;;;10.30;99.90;;;;;;5028487;28;20036;-74
2022/02/02 10:22:22;;;;;;;6.60;1.65;;;11.10;99.90;;;;;;5027085;28;20562;-73
2022/02/02 10:24:53;;;;;;;9.93;1.63;;;12.00;99.90;;;;;;5027731;28;20041;-72
2022/02/02 10:27:24;;;;;;;7.95;2.15;;;13.20;99.90;;;;;;5031030;28;20033;-71
2022/02/02 10:29:50;;;;;;;8.48;2.30;;;13.80;99.90;;;;;;5026904;28;20315;-72
2022/02/02 10:32:35;;;;;;;11.38;2.85;;;;;;;;;;5025727;28;20121;-74
2022/02/02 10:35:01;;;;;;;7.28;2.45;;;;;;;;;;5025451;28;20340;-73
2022/02/02 10:37:30;;;;;;;12.95;2.70;;;;;;;;;;5024470;28;20036;-72
2022/02/02 10:39:57;;;;;;;11.48;2.63;;;;;;;;;;5017882;28;20029;-71
2022/02/02 10:42:43;;;;;;;10.43;3.00;;;;;;;;;;5019450;28;20030;-73
2022/02/02 10:45:25;;;;;;;10.85;3.58;;;;;;;;;;5024117;28;20056;-73
2022/02/02 10:48:03;;;;;;;11.82;3.30;;;;;;;;;;5023644;28;20049;-74
2022/02/02 10:50:36;;;;;;;12.05;2.47;;;;;;;;;;5024199;28;20021;-73
2022/02/02 10:53:29;;;;;;;9.82;2.53;;;;;;;;;;5020406;28;20034;-73
2022/02/02 10:59:04;;;;;;;17.77;2.55;;;;;;;;;;5004986;28;20123;-76
2022/02/02 11:06:53;;;;;;;10.32;2.75;;;13.90;95.60;;;;;;5007503;28;20076;-72
2022/02/02 11:09:20;;;;;;;13.73;4.00;;;13.70;96.20;;;;;;5015154;28;20029;-72
2022/02/02 11:11:51;;;;;;;11.68;3.08;;;13.90;97.60;;;;;;5029146;28;20455;-71
2022/02/02 11:14:32;;;;;;;9.10;2.75;;;14.30;96.80;;;;;;5022168;28;20041;-73
2022/02/02 11:17:08;;;;;;;12.93;3.03;;;14.50;95.90;;;;;;5026645;28;20103;-71
2022/02/02 11:19:38;;;;;;;10.05;2.75;;;15.30;97.20;;;;;;5026074;28;20033;-76
2022/02/02 11:22:19;;;;;;;11.88;2.85;;;15.60;94.60;;;;;;5025104;28;20612;-77
2022/02/02 11:24:44;;;;;;;10.35;3.42;;;15.50;95.50;;;;;;5024741;28;20040;-72
2022/02/02 11:27:37;;;;;;;7.55;2.67;;;16.40;94.20;;;;;;5022676;28;20033;-72
2022/02/02 11:30:08;;;;;;;12.65;3.05;;;16.70;91.90;;;;;;5023198;28;20340;-73
2022/02/02 11:32:43;;;;;;;8.50;2.47;;;15.80;91.50;;;;;;5025043;28;20099;-72
2022/02/02 11:35:44;;;;;;;17.35;3.47;;;15.60;92.20;;;;;;5022663;28;20095;-72
2022/02/02 11:38:36;;;;;;;14.52;3.63;;;15.20;92.50;;;;;;5024782;28;20099;-72
2022/02/02 11:41:12;;;;;;;12.38;3.05;;;14.70;93.60;;;;;;5005251;28;20519;-72
2022/02/02 11:46:50;;;;;;;9.65;2.65;;;13.80;95.20;;;;;;5024372;28;20193;-71
2022/02/02 11:49:43;;;;;;;14.80;3.50;;;13.60;94.70;;;;;;5007994;28;20036;-72
2022/02/02 11:52:33;;;;;;;12.38;2.60;;;13.60;95.20;;;;;;5020748;28;20126;-72
2022/02/02 11:54:59;;;;;;;14.70;3.08;;;13.90;95.00;;;;;;5026761;28;20115;-73
2022/02/02 11:57:34;;;;;;;16.30;3.40;;;13.30;95.10;;;;;;5025143;28;20033;-72
2022/02/02 12:00:18;;;;;;;11.57;3.15;;;12.60;96.20;;;;;;5029009;28;20033;-71
2022/02/02 12:03:30;;;;;;;9.00;3.35;;;12.70;96.40;;;;;;5031317;28;20483;-73
2022/02/02 12:06:30;;;;;;;16.55;3.17;;;12.50;96.60;;;;;;5031330;28;20083;-70
2022/02/02 12:58:15;;;;;;;11.77;3.22;;;11.50;99.90;;;;;;5024569;28;20091;-75
2022/02/02 13:03:10;;;;;;;24.10;4.00;;;11.80;99.90;;;;;;5034226;28;20175;-74
2022/02/02 13:05:37;;;;;;;10.60;2.75;;;11.60;99.90;;;;;;5031415;28;20082;-75
2022/02/02 13:08:04;;;;;;;15.30;2.90;;;11.50;99.90;;;;;;5006097;28;20046;-76
2022/02/02 13:10:33;;;;;;;10.73;3.00;;;11.40;99.90;;;;;;5011195;28;20482;-74
2022/02/02 13:13:11;;;;;;;15.85;2.92;;;11.10;99.90;;;;;;5011879;28;20129;-76
2022/02/02 13:15:45;;;;;;;10.68;2.75;;;11.10;99.90;;;;;;4995467;28;20025;-74
2022/02/02 13:21:10;;;;;;;15.82;3.53;;;11.00;99.90;;;;;;5011654;28;20034;-69
2022/02/02 13:23:51;;;;;;;14.65;3.15;;;11.00;99.90;;;;;;4996164;28;20490;-74
2022/02/02 13:26:36;;;;;;;18.00;3.60;;;11.00;99.90;;;;;;5012589;28;20064;-73
2022/02/02 13:29:10;;;;;;;13.45;2.83;;;11.10;99.90;;;;;;4996959;28;20124;-74
2022/02/02 13:31:49;;;;;;;13.95;3.65;;;11.50;99.90;;;;;;5012635;28;20026;-76
2022/02/02 14:04:26;;;;;;;9.23;2.30;;;14.60;97.20;;;;;;5030082;28;20064;-72
2022/02/02 14:31:05;;;;;;;9.30;2.67;;;15.60;94.20;;;;;;5025742;28;20116;-73
2022/02/02 14:31:45;;;;;;;14.35;2.97;;;15.80;93.10;;;;;;5007091;28;20359;-73
2022/02/02 14:34:11;;;;;;;10.45;2.65;;;16.10;93.20;;;;;;5022787;28;20084;-72
2022/02/02 14:36:38;;;;;;;9.95;2.20;;;15.50;92.30;;;;;;5032763;28;20033;-72
2022/02/02 14:39:21;;;;;;;8.25;1.85;;;15.40;92.40;;;;;;5026599;28;20018;-73
2022/02/02 14:41:52;;;;;;;10.60;2.92;;;15.70;92.40;;;;;;5028936;28;20077;-72
2022/02/02 14:47:06;;;;;;;7.70;2.92;;;16.70;94.80;;;;;;5025695;28;20041;-73
2022/02/02 14:49:49;;;;;;;15.02;2.65;;;16.60;91.20;;;;;;5023691;28;20033;-73
2022/02/02 14:53:10;;;;;;;8.82;2.20;;;16.30;92.80;;;;;;5024550;28;20343;-73
2022/02/02 15:27:53;;;;;;;11.27;2.42;;;15.20;93.30;;;;;;5020559;28;20406;-73
2022/02/02 15:32:50;;;;;;;11.23;2.83;;;14.90;93.50;;;;;;5020952;28;20037;-71
2022/02/02 15:35:16;;;;;;;9.57;3.15;;;14.60;94.20;;;;;;5023401;28;20143;-70
2022/02/02 15:37:56;;;;;;;13.27;3.08;;;14.60;96.20;;;;;;5026694;28;20057;-72
2022/02/02 15:40:28;;;;;;;16.38;3.35;;;14.50;94.90;;;;;;5026972;28;20214;-71
2022/02/02 15:43:09;;;;;;;12.73;3.25;;;15.00;99.90;;;;;;5024737;28;20041;-72
2022/02/02 15:57:34;;;;;;;16.48;4.00;;;13.50;96.90;;;;;;5027262;28;20828;-71
2022/02/02 16:02:12;;;;;;;15.98;4.07;;;12.60;99.30;;;;;;5028073;28;20071;-71
2022/02/02 16:04:39;;;;;;;10.13;3.45;;;12.10;99.90;;;;;;5026766;28;20040;-71
2022/02/02 16:07:08;;;;;;;34.83;4.10;;;11.90;99.90;;;;;;5028911;28;20033;-69
2022/02/02 16:09:53;;;;;;;17.67;5.00;;;11.90;99.90;;;;;;5025150;28;20518;-69
2022/02/02 16:12:29;;;;;;;17.73;3.80;;;11.50;99.90;;;;;;5028806;28;20125;-71
2022/02/02 16:15:14;;;;;;;16.80;3.63;;;11.20;99.90;;;;;;5029995;28;20088;-71
2022/02/02 16:36:28;;;;;;;22.42;5.45;;;11.00;99.90;;;;;;5028826;28;20052;-72
2022/02/02 16:39:01;;;;;;;18.67;3.88;;;11.00;99.90;;;;;;5027350;28;20065;-69
2022/02/02 16:44:11;;;;;;;20.65;3.97;;;11.00;99.90;;;;;;5029496;28;20080;-73
2022/02/02 16:46:37;;;;;;;19.55;4.50;;;11.20;99.90;;;;;;5029202;28;20440;-71
2022/02/02 16:49:03;;;;;;;21.58;5.07;;;11.00;99.90;;;;;;5031196;28;20136;-72
2022/02/02 16:51:31;;;;;;;16.90;4.35;;;10.90;99.90;;;;;;5029896;28;20033;-72
2022/02/02 16:54:00;;;;;;;19.65;3.90;;;10.80;99.90;;;;;;5036570;28;20087;-74
2022/02/02 17:31:51;;;;;;;24.73;5.35;;;10.80;99.90;;;;;;5030664;28;20045;-72
2022/02/02 17:34:42;;;;;;;21.17;4.00;;;10.70;99.90;;;;;;5025943;28;20033;-69
2022/02/02 17:39:57;;;;;;;19.17;4.18;;;11.40;99.90;;;;;;5029106;28;20025;-73
2022/02/02 18:13:10;;;;;;;23.85;6.28;;;10.10;99.90;;;;;;5027223;28;20099;-72
2022/02/02 18:20:38;;;;;;;28.48;6.45;;;10.00;99.90;;;;;;5046820;28;20061;-72
2022/02/02 18:25:44;;;;;;;22.10;5.30;;;9.60;99.90;;;;;;5028961;28;20164;-72
2022/02/02 18:33:24;;;;;;;24.83;6.18;;;9.50;99.90;;;;;;5029052;28;20033;-72
2022/02/02 18:48:58;;;;;;;22.48;6.18;;;9.20;99.90;;;;;;5028970;28;20041;-73
2022/02/02 18:54:24;;;;;;;19.23;6.07;;;9.20;99.90;;;;;;5030508;28;20053;-72
2022/02/02 19:02:24;;;;;;;19.70;5.93;;;9.00;99.90;;;;;;5044320;28;20034;-73
2022/02/02 19:05:22;;;;;;;25.38;8.00;;;9.10;99.90;;;;;;5047693;28;20100;-76
2022/02/02 19:08:08;;;;;;;25.10;7.40;;;9.00;99.90;;;;;;5041116;28;20060;-72
2022/02/02 20:12:30;;;;;;;28.67;8.20;;;8.50;99.90;;;;;;5033661;28;20479;-72
2022/02/02 20:14:56;;;;;;;20.67;5.43;;;8.60;99.90;;;;;;5038109;28;20029;-72
2022/02/02 20:17:24;;;;;;;28.60;6.60;;;8.70;99.90;;;;;;5033600;28;20022;-73
2022/02/02 20:19:56;;;;;;;28.02;7.47;;;8.80;99.90;;;;;;5032587;28;20025;-73
2022/02/02 20:22:25;;;;;;;19.42;6.15;;;8.70;99.90;;;;;;5029944;28;20119;-72
2022/02/02 20:25:00;;;;;;;18.63;6.53;;;8.80;99.90;;;;;;5033602;28;20082;-71
2022/02/02 20:27:29;;;;;;;27.52;7.50;;;8.80;99.90;;;;;;5026527;28;20076;-72
2022/02/02 20:29:55;;;;;;;26.95;6.95;;;8.80;99.90;;;;;;5029707;28;20060;-72
2022/02/02 20:32:20;;;;;;;22.38;6.00;;;8.60;99.90;;;;;;5028141;28;20064;-72
2022/02/02 20:34:46;;;;;;;26.60;6.68;;;8.70;99.90;;;;;;5026448;28;20026;-72
2022/02/02 20:37:15;;;;;;;16.50;5.30;;;8.70;99.90;;;;;;5034366;28;20102;-73
2022/02/02 20:39:52;;;;;;;22.92;6.57;;;8.70;99.90;;;;;;5028009;28;20060;-73
2022/02/02 20:42:52;;;;;;;23.38;7.63;;;8.60;99.90;;;;;;5078957;28;20025;-79
2022/02/02 21:14:49;;;;;;;22.02;7.15;;;8.30;99.90;;;;;;5036614;28;20111;-72
2022/02/02 21:17:23;;;;;;;33.88;8.52;;;8.30;99.90;;;;;;5032112;28;20026;-74
2022/02/02 21:19:56;;;;;;;27.70;7.32;;;8.20;99.90;;;;;;5033684;28;20030;-74
2022/02/02 21:22:23;;;;;;;24.58;5.75;;;8.20;99.90;;;;;;5052515;28;20122;-73
2022/02/02 21:27:23;;;;;;;23.20;6.85;;;8.30;99.90;;;;;;5041921;28;20037;-74
2022/02/02 21:29:49;;;;;;;20.17;6.22;;;8.30;99.90;;;;;;5048757;28;20035;-75
2022/02/02 21:32:16;;;;;;;20.80;7.45;;;8.20;99.90;;;;;;5034254;28;20147;-72
2022/02/02 21:34:42;;;;;;;16.95;6.43;;;8.20;99.90;;;;;;5032066;28;20033;-72
2022/02/02 21:37:09;;;;;;;16.58;5.35;;;8.30;99.90;;;;;;5032111;28;20491;-74
2022/02/02 21:39:39;;;;;;;17.23;5.72;;;8.20;99.90;;;;;;5035444;28;20068;-71
2022/02/02 21:42:05;;;;;;;18.33;6.10;;;8.20;99.90;;;;;;5033570;28;20457;-73
2022/02/02 21:44:30;;;;;;;27.65;6.75;;;8.20;99.90;;;;;;5034584;28;20169;-70
2022/02/02 21:46:57;;;;;;;36.17;8.35;;;8.00;99.90;;;;;;5037008;28;20029;-72
2022/02/02 21:49:24;;;;;;;24.65;7.20;;;9.00;99.90;;;;;;5034773;28;20156;-67
2022/02/02 21:52:02;;;;;;;24.65;6.15;;;9.50;99.90;;;;;;5035560;28;20029;-68
2022/02/02 21:54:28;;;;;;;15.65;6.00;;;9.70;99.90;;;;;;5033099;28;20109;-71
2022/02/02 21:56:55;;;;;;;23.23;7.03;;;10.10;99.90;;;;;;5034118;28;20029;-73
2022/02/02 21:59:21;;;;;;;16.40;6.07;;;9.30;99.90;;;;;;5017716;28;20037;-70
2022/02/02 22:01:48;;;;;;;22.40;6.95;;;8.80;99.90;;;;;;5034047;28;20459;-71
2022/02/02 22:04:13;;;;;;;14.05;5.72;;;8.60;99.90;;;;;;5031978;28;20387;-71
2022/02/02 22:06:39;;;;;;;18.95;6.65;;;8.40;99.90;;;;;;5032562;28;20021;-71
2022/02/02 22:09:05;;;;;;;20.20;6.55;;;8.30;99.90;;;;;;5031743;28;20464;-70
2022/02/02 22:11:31;;;;;;;16.80;5.80;;;8.20;99.90;;;;;;5031182;28;20029;-70
2022/02/02 22:14:04;;;;;;;21.77;6.80;;;8.20;99.90;;;;;;5033140;28;20029;-70
2022/02/02 22:16:30;;;;;;;19.05;5.75;;;8.10;99.90;;;;;;5031596;28;20036;-71
2022/02/02 22:18:56;;;;;;;23.48;6.20;;;8.10;99.90;;;;;;5033136;28;20021;-71
2022/02/02 22:21:25;;;;;;;14.50;5.68;;;8.10;99.90;;;;;;5031345;28;20088;-73
2022/02/02 22:23:50;;;;;;;24.58;6.47;;;8.20;99.90;;;;;;5031927;28;20398;-70
2022/02/02 22:26:18;;;;;;;18.15;6.63;;;8.20;99.90;;;;;;5032486;28;20120;-69
2022/02/02 22:28:44;;;;;;;23.73;6.50;;;8.10;99.90;;;;;;5033853;28;20021;-71
2022/02/02 22:31:10;;;;;;;22.02;7.00;;;8.10;99.90;;;;;;5035191;28;20037;-72
2022/02/02 22:33:36;;;;;;;21.30;7.57;;;8.20;99.90;;;;;;5032027;28;20078;-70
2022/02/02 22:36:01;;;;;;;23.25;6.25;;;8.10;99.90;;;;;;5033606;28;20160;-70
2022/02/02 22:38:28;;;;;;;20.40;6.20;;;8.10;99.90;;;;;;5031639;28;20033;-70
2022/02/02 22:40:56;;;;;;;17.33;6.55;;;8.10;99.90;;;;;;5031657;28;20040;-71
2022/02/02 22:43:21;;;;;;;22.40;6.07;;;8.20;99.90;;;;;;5027700;28;20026;-70
2022/02/02 22:45:50;;;;;;;25.27;6.60;;;8.10;99.90;;;;;;5013739;28;20036;-70
2022/02/02 22:48:20;;;;;;;22.02;7.80;;;8.20;99.90;;;;;;5021648;28;20022;-69
2022/02/02 22:50:45;;;;;;;16.98;6.50;;;8.20;99.90;;;;;;5019210;28;20053;-70
2022/02/02 22:53:12;;;;;;;21.98;6.55;;;8.20;99.90;;;;;;5032749;28;20061;-69
2022/02/02 22:55:37;;;;;;;22.17;7.32;;;8.10;99.90;;;;;;5030829;28;20032;-69
2022/02/02 22:58:04;;;;;;;19.45;6.45;;;8.00;99.90;;;;;;5031494;28;20526;-68
2022/02/02 23:00:33;;;;;;;21.17;6.93;;;8.00;99.90;;;;;;5032423;28;20026;-70
2022/02/02 23:03:02;;;;;;;27.95;8.63;;;8.00;99.90;;;;;;5033108;28;20386;-69
2022/02/02 23:05:38;;;;;;;20.35;6.88;;;8.00;99.90;;;;;;5034161;28;20034;-70
2022/02/02 23:08:06;;;;;;;21.90;6.97;;;8.10;99.90;;;;;;5034072;28;20467;-68
2022/02/02 23:10:33;;;;;;;18.05;6.40;;;7.90;99.90;;;;;;5032504;28;20117;-68
2022/02/02 23:12:59;;;;;;;17.40;6.35;;;7.90;99.90;;;;;;5031341;28;20029;-71
2022/02/02 23:15:53;;;;;;;15.30;6.40;;;8.00;99.90;;;;;;5030789;28;20442;-73
2022/02/02 23:18:18;;;;;;;19.67;6.25;;;8.00;99.90;;;;;;5031721;28;20025;-69
2022/02/02 23:20:48;;;;;;;23.70;6.82;;;8.00;99.90;;;;;;5029478;28;20079;-65
2022/02/02 23:23:19;;;;;;;15.90;6.47;;;8.10;99.90;;;;;;5015788;28;20049;-70
2022/02/02 23:25:46;;;;;;;52.17;7.77;;;8.10;99.90;;;;;;5033037;28;20350;-71
2022/02/02 23:28:12;;;;;;;18.15;6.65;;;8.00;99.90;;;;;;5034050;28;20272;-69
2022/02/02 23:30:39;;;;;;;20.23;7.07;;;8.00;99.90;;;;;;5034065;28;20021;-71
2022/02/02 23:33:05;;;;;;;23.67;6.20;;;8.00;99.90;;;;;;5032374;28;20474;-73
2022/02/02 23:35:31;;;;;;;23.90;6.30;;;8.00;99.90;;;;;;5031743;28;20070;-70
2022/02/02 23:37:57;;;;;;;25.17;6.53;;;8.10;99.90;;;;;;5031243;28;20206;-69
2022/02/02 23:40:23;;;;;;;23.58;6.45;;;8.00;99.90;;;;;;5031128;28;20121;-70
2022/02/02 23:42:49;;;;;;;15.52;6.72;;;8.00;99.90;;;;;;5030799;28;20482;-69
2022/02/02 23:45:15;;;;;;;18.17;6.60;;;8.20;99.90;;;;;;5030841;28;20034;-69
2022/02/02 23:47:46;;;;;;;23.00;6.15;;;8.20;99.90;;;;;;5030993;28;20112;-69
2022/02/02 23:50:15;;;;;;;17.33;7.30;;;8.20;99.90;;;;;;5033911;28;20026;-69
2022/02/02 23:52:48;;;;;;;19.80;7.20;;;8.20;99.90;;;;;;5030479;28;20095;-70
2022/02/02 23:55:22;;;;;;;15.05;6.85;;;8.20;99.90;;;;;;5027942;28;20041;-70
2022/02/02 23:57:58;;;;;;;18.23;5.90;;;8.20;99.90;;;;;;5034805;28;20029;-68
